sensor_id;sensor_type;location;lat;lon;timestamp;temperature;humidity
27940;DHT22;15275;51.716;14.324;2023-09-19T00:00:38;22.80;84.20
27940;DHT22;15275;51.716;14.324;2023-09-19T00:03:05;22.80;84.20
27940;DHT22;15275;51.716;14.324;2023-09-19T00:05:33;22.80;84.20
27940;DHT22;15275;51.716;14.324;2023-09-19T00:08:00;22.80;84.30
27940;DHT22;15275;51.716;14.324;2023-09-19T00:10:27;22.80;84.20
27940;DHT22;15275;51.716;14.324;2023-09-19T00:12:56;22.80;84.20
27940;DHT22;15275;51.716;14.324;2023-09-19T00:15:24;22.80;84.20
27940;DHT22;15275;51.716;14.324;2023-09-19T00:17:56;22.80;84.10
27940;DHT22;15275;51.716;14.324;2023-09-19T00:20:22;22.80;84.10
27940;DHT22;15275;51.716;14.324;2023-09-19T00:22:54;22.80;84.10
27940;DHT22;15275;51.716;14.324;2023-09-19T00:25:20;22.80;84.20
27940;DHT22;15275;51.716;14.324;2023-09-19T00:27:46;22.80;84.20
27940;DHT22;15275;51.716;14.324;2023-09-19T00:30:13;22.80;84.20
27940;DHT22;15275;51.716;14.324;2023-09-19T00:32:46;22.80;84.20
27940;DHT22;15275;51.716;14.324;2023-09-19T00:35:15;22.80;84.20
27940;DHT22;15275;51.716;14.324;2023-09-19T00:37:41;22.80;84.20
27940;DHT22;15275;51.716;14.324;2023-09-19T00:40:07;22.80;84.20
27940;DHT22;15275;51.716;14.324;2023-09-19T00:42:46;22.80;84.20
27940;DHT22;15275;51.716;14.324;2023-09-19T00:45:13;22.80;84.20
27940;DHT22;15275;51.716;14.324;2023-09-19T00:47:47;22.80;84.10
27940;DHT22;15275;51.716;14.324;2023-09-19T00:50:17;22.80;84.00
27940;DHT22;15275;51.716;14.324;2023-09-19T00:52:44;22.80;84.00
27940;DHT22;15275;51.716;14.324;2023-09-19T00:55:12;22.70;84.00
27940;DHT22;15275;51.716;14.324;2023-09-19T00:57:41;22.80;84.00
27940;DHT22;15275;51.716;14.324;2023-09-19T01:00:07;22.70;84.00
27940;DHT22;15275;51.716;14.324;2023-09-19T01:02:41;22.70;84.00
27940;DHT22;15275;51.716;14.324;2023-09-19T01:05:10;22.70;83.90
27940;DHT22;15275;51.716;14.324;2023-09-19T01:07:38;22.70;83.90
27940;DHT22;15275;51.716;14.324;2023-09-19T01:10:10;22.70;83.90
27940;DHT22;15275;51.716;14.324;2023-09-19T01:17:54;22.70;83.90
27940;DHT22;15275;51.716;14.324;2023-09-19T01:23:10;22.70;83.90
27940;DHT22;15275;51.716;14.324;2023-09-19T01:31:03;22.60;83.90
27940;DHT22;15275;51.716;14.324;2023-09-19T01:36:23;22.60;83.90
27940;DHT22;15275;51.716;14.324;2023-09-19T01:38:50;22.60;83.80
27940;DHT22;15275;51.716;14.324;2023-09-19T01:41:17;22.60;83.90
27940;DHT22;15275;51.716;14.324;2023-09-19T01:43:47;22.60;83.90
27940;DHT22;15275;51.716;14.324;2023-09-19T01:46:18;22.60;83.90
27940;DHT22;15275;51.716;14.324;2023-09-19T01:48:49;22.60;83.90
27940;DHT22;15275;51.716;14.324;2023-09-19T01:51:33;22.60;83.80
27940;DHT22;15275;51.716;14.324;2023-09-19T01:54:03;22.60;83.80
27940;DHT22;15275;51.716;14.324;2023-09-19T01:56:40;22.60;83.70
27940;DHT22;15275;51.716;14.324;2023-09-19T01:59:10;22.60;83.80
27940;DHT22;15275;51.716;14.324;2023-09-19T02:01:39;22.60;83.80
27940;DHT22;15275;51.716;14.324;2023-09-19T02:04:05;22.60;83.80
27940;DHT22;15275;51.716;14.324;2023-09-19T02:06:32;22.60;83.80
27940;DHT22;15275;51.716;14.324;2023-09-19T02:08:59;22.60;83.80
27940;DHT22;15275;51.716;14.324;2023-09-19T02:11:25;22.60;83.80
27940;DHT22;15275;51.716;14.324;2023-09-19T02:13:50;22.60;83.80
27940;DHT22;15275;51.716;14.324;2023-09-19T02:16:19;22.60;83.80
27940;DHT22;15275;51.716;14.324;2023-09-19T02:18:49;22.60;83.70
27940;DHT22;15275;51.716;14.324;2023-09-19T02:21:15;22.60;83.70
27940;DHT22;15275;51.716;14.324;2023-09-19T02:23:42;22.60;83.80
27940;DHT22;15275;51.716;14.324;2023-09-19T02:26:09;22.60;83.70
27940;DHT22;15275;51.716;14.324;2023-09-19T02:28:36;22.60;83.80
27940;DHT22;15275;51.716;14.324;2023-09-19T02:31:01;22.60;83.80
27940;DHT22;15275;51.716;14.324;2023-09-19T02:33:28;22.60;83.80
27940;DHT22;15275;51.716;14.324;2023-09-19T02:35:58;22.60;83.70
27940;DHT22;15275;51.716;14.324;2023-09-19T02:38:24;22.60;83.80
27940;DHT22;15275;51.716;14.324;2023-09-19T02:40:54;22.60;83.70
27940;DHT22;15275;51.716;14.324;2023-09-19T02:43:22;22.60;83.80
27940;DHT22;15275;51.716;14.324;2023-09-19T02:45:49;22.50;83.80
27940;DHT22;15275;51.716;14.324;2023-09-19T02:48:15;22.60;83.80
27940;DHT22;15275;51.716;14.324;2023-09-19T02:50:42;22.50;83.60
27940;DHT22;15275;51.716;14.324;2023-09-19T02:53:09;22.50;83.70
27940;DHT22;15275;51.716;14.324;2023-09-19T02:55:36;22.50;83.70
27940;DHT22;15275;51.716;14.324;2023-09-19T02:58:03;22.50;83.70
27940;DHT22;15275;51.716;14.324;2023-09-19T03:00:30;22.50;83.80
27940;DHT22;15275;51.716;14.324;2023-09-19T03:02:56;22.50;83.80
27940;DHT22;15275;51.716;14.324;2023-09-19T03:05:22;22.50;83.80
27940;DHT22;15275;51.716;14.324;2023-09-19T03:07:51;22.50;83.70
27940;DHT22;15275;51.716;14.324;2023-09-19T03:10:18;22.50;83.70
27940;DHT22;15275;51.716;14.324;2023-09-19T03:12:44;22.50;83.80
27940;DHT22;15275;51.716;14.324;2023-09-19T03:15:10;22.50;83.80
27940;DHT22;15275;51.716;14.324;2023-09-19T03:17:35;22.50;83.80
27940;DHT22;15275;51.716;14.324;2023-09-19T03:20:02;22.50;83.70
27940;DHT22;15275;51.716;14.324;2023-09-19T03:22:34;22.50;83.70
27940;DHT22;15275;51.716;14.324;2023-09-19T03:25:00;22.50;83.80
27940;DHT22;15275;51.716;14.324;2023-09-19T03:27:26;22.50;83.80
27940;DHT22;15275;51.716;14.324;2023-09-19T03:29:52;22.50;83.90
27940;DHT22;15275;51.716;14.324;2023-09-19T03:32:19;22.50;83.80
27940;DHT22;15275;51.716;14.324;2023-09-19T03:34:44;22.50;83.80
27940;DHT22;15275;51.716;14.324;2023-09-19T03:37:10;22.50;83.80
27940;DHT22;15275;51.716;14.324;2023-09-19T03:39:36;22.50;83.80
27940;DHT22;15275;51.716;14.324;2023-09-19T03:42:02;22.50;83.80
27940;DHT22;15275;51.716;14.324;2023-09-19T03:44:29;22.50;83.80
27940;DHT22;15275;51.716;14.324;2023-09-19T03:46:56;22.50;83.80
27940;DHT22;15275;51.716;14.324;2023-09-19T03:49:22;22.50;83.90
27940;DHT22;15275;51.716;14.324;2023-09-19T03:51:48;22.50;83.70
27940;DHT22;15275;51.716;14.324;2023-09-19T03:54:13;22.50;83.60
27940;DHT22;15275;51.716;14.324;2023-09-19T03:56:39;22.50;83.70
27940;DHT22;15275;51.716;14.324;2023-09-19T03:59:05;22.50;83.70
27940;DHT22;15275;51.716;14.324;2023-09-19T04:01:31;22.50;83.70
27940;DHT22;15275;51.716;14.324;2023-09-19T04:03:59;22.50;83.70
27940;DHT22;15275;51.716;14.324;2023-09-19T04:06:33;22.50;83.80
27940;DHT22;15275;51.716;14.324;2023-09-19T04:09:00;22.50;83.90
27940;DHT22;15275;51.716;14.324;2023-09-19T04:11:27;22.60;83.90
27940;DHT22;15275;51.716;14.324;2023-09-19T04:13:52;22.60;83.90
27940;DHT22;15275;51.716;14.324;2023-09-19T04:16:19;22.60;83.80
27940;DHT22;15275;51.716;14.324;2023-09-19T04:18:45;22.60;83.80
27940;DHT22;15275;51.716;14.324;2023-09-19T04:21:10;22.60;83.80
27940;DHT22;15275;51.716;14.324;2023-09-19T04:23:36;22.60;83.80
27940;DHT22;15275;51.716;14.324;2023-09-19T04:26:02;22.60;83.80
27940;DHT22;15275;51.716;14.324;2023-09-19T04:28:30;22.60;83.80
27940;DHT22;15275;51.716;14.324;2023-09-19T04:30:56;22.60;82.90
27940;DHT22;15275;51.716;14.324;2023-09-19T04:33:24;22.60;83.40
27940;DHT22;15275;51.716;14.324;2023-09-19T04:35:50;22.60;83.60
27940;DHT22;15275;51.716;14.324;2023-09-19T04:38:17;22.50;83.60
27940;DHT22;15275;51.716;14.324;2023-09-19T04:40:44;22.50;83.50
27940;DHT22;15275;51.716;14.324;2023-09-19T04:43:10;22.50;83.60
27940;DHT22;15275;51.716;14.324;2023-09-19T04:45:36;22.50;83.60
27940;DHT22;15275;51.716;14.324;2023-09-19T04:48:04;22.50;83.70
27940;DHT22;15275;51.716;14.324;2023-09-19T04:50:32;22.50;83.50
27940;DHT22;15275;51.716;14.324;2023-09-19T04:52:57;22.50;83.50
27940;DHT22;15275;51.716;14.324;2023-09-19T04:55:25;22.50;83.70
27940;DHT22;15275;51.716;14.324;2023-09-19T04:57:51;22.50;83.70
27940;DHT22;15275;51.716;14.324;2023-09-19T05:00:18;22.50;83.80
27940;DHT22;15275;51.716;14.324;2023-09-19T05:02:52;22.50;83.80
27940;DHT22;15275;51.716;14.324;2023-09-19T05:05:18;22.50;83.80
27940;DHT22;15275;51.716;14.324;2023-09-19T05:07:44;22.50;83.90
27940;DHT22;15275;51.716;14.324;2023-09-19T05:10:11;22.50;83.70
27940;DHT22;15275;51.716;14.324;2023-09-19T05:12:37;22.50;83.80
27940;DHT22;15275;51.716;14.324;2023-09-19T05:15:04;22.50;83.70
27940;DHT22;15275;51.716;14.324;2023-09-19T05:17:32;22.50;83.40
27940;DHT22;15275;51.716;14.324;2023-09-19T05:19:59;22.50;83.30
27940;DHT22;15275;51.716;14.324;2023-09-19T05:22:31;22.50;83.50
27940;DHT22;15275;51.716;14.324;2023-09-19T05:24:58;22.50;83.50
27940;DHT22;15275;51.716;14.324;2023-09-19T05:27:23;22.50;84.00
27940;DHT22;15275;51.716;14.324;2023-09-19T05:29:49;22.50;83.90
27940;DHT22;15275;51.716;14.324;2023-09-19T05:32:18;22.50;84.00
27940;DHT22;15275;51.716;14.324;2023-09-19T05:34:45;22.60;83.80
27940;DHT22;15275;51.716;14.324;2023-09-19T05:37:12;22.60;83.80
27940;DHT22;15275;51.716;14.324;2023-09-19T05:39:38;22.60;83.80
27940;DHT22;15275;51.716;14.324;2023-09-19T05:42:04;22.60;83.20
27940;DHT22;15275;51.716;14.324;2023-09-19T05:44:30;22.60;83.50
27940;DHT22;15275;51.716;14.324;2023-09-19T05:46:56;22.60;83.70
27940;DHT22;15275;51.716;14.324;2023-09-19T05:49:22;22.70;82.80
27940;DHT22;15275;51.716;14.324;2023-09-19T05:51:49;22.70;83.00
27940;DHT22;15275;51.716;14.324;2023-09-19T05:54:19;22.70;83.50
27940;DHT22;15275;51.716;14.324;2023-09-19T05:56:45;22.70;83.40
27940;DHT22;15275;51.716;14.324;2023-09-19T05:59:12;22.70;81.30
27940;DHT22;15275;51.716;14.324;2023-09-19T06:01:41;22.70;82.70
27940;DHT22;15275;51.716;14.324;2023-09-19T06:04:08;22.80;83.30
27940;DHT22;15275;51.716;14.324;2023-09-19T06:06:33;22.80;83.40
27940;DHT22;15275;51.716;14.324;2023-09-19T06:09:06;22.80;83.00
27940;DHT22;15275;51.716;14.324;2023-09-19T06:11:36;22.80;81.30
27940;DHT22;15275;51.716;14.324;2023-09-19T06:14:03;22.80;77.50
27940;DHT22;15275;51.716;14.324;2023-09-19T06:16:32;22.80;80.40
27940;DHT22;15275;51.716;14.324;2023-09-19T06:18:57;22.90;81.10
27940;DHT22;15275;51.716;14.324;2023-09-19T06:21:25;22.90;78.90
27940;DHT22;15275;51.716;14.324;2023-09-19T06:23:55;22.90;81.30
27940;DHT22;15275;51.716;14.324;2023-09-19T06:26:23;22.90;81.90
27940;DHT22;15275;51.716;14.324;2023-09-19T06:28:48;22.90;81.20
27940;DHT22;15275;51.716;14.324;2023-09-19T06:31:14;23.00;82.10
27940;DHT22;15275;51.716;14.324;2023-09-19T06:33:40;23.00;82.70
27940;DHT22;15275;51.716;14.324;2023-09-19T06:36:06;23.00;82.90
27940;DHT22;15275;51.716;14.324;2023-09-19T06:38:32;23.10;83.20
27940;DHT22;15275;51.716;14.324;2023-09-19T06:41:01;23.20;82.90
27940;DHT22;15275;51.716;14.324;2023-09-19T06:43:30;23.20;82.20
27940;DHT22;15275;51.716;14.324;2023-09-19T06:45:58;23.20;82.20
27940;DHT22;15275;51.716;14.324;2023-09-19T06:48:25;23.20;82.40
27940;DHT22;15275;51.716;14.324;2023-09-19T06:50:57;23.30;82.60
27940;DHT22;15275;51.716;14.324;2023-09-19T06:53:31;23.30;82.70
27940;DHT22;15275;51.716;14.324;2023-09-19T06:55:58;23.30;82.10
27940;DHT22;15275;51.716;14.324;2023-09-19T06:58:23;23.30;81.70
27940;DHT22;15275;51.716;14.324;2023-09-19T07:00:49;23.30;82.40
27940;DHT22;15275;51.716;14.324;2023-09-19T07:03:19;23.30;82.70
27940;DHT22;15275;51.716;14.324;2023-09-19T07:05:47;23.40;82.80
27940;DHT22;15275;51.716;14.324;2023-09-19T07:08:13;23.40;79.50
27940;DHT22;15275;51.716;14.324;2023-09-19T07:10:40;23.50;82.10
27940;DHT22;15275;51.716;14.324;2023-09-19T07:13:07;23.50;80.70
27940;DHT22;15275;51.716;14.324;2023-09-19T07:15:37;23.50;77.50
27940;DHT22;15275;51.716;14.324;2023-09-19T07:18:12;23.50;81.10
27940;DHT22;15275;51.716;14.324;2023-09-19T07:20:40;23.50;75.60
27940;DHT22;15275;51.716;14.324;2023-09-19T07:23:11;23.50;81.00
27940;DHT22;15275;51.716;14.324;2023-09-19T07:25:39;23.60;81.30
27940;DHT22;15275;51.716;14.324;2023-09-19T07:28:05;23.60;82.20
27940;DHT22;15275;51.716;14.324;2023-09-19T07:30:30;23.70;80.20
27940;DHT22;15275;51.716;14.324;2023-09-19T07:32:56;23.70;81.00
27940;DHT22;15275;51.716;14.324;2023-09-19T07:35:22;23.80;81.80
27940;DHT22;15275;51.716;14.324;2023-09-19T07:37:48;23.80;81.50
27940;DHT22;15275;51.716;14.324;2023-09-19T07:40:15;23.90;81.90
27940;DHT22;15275;51.716;14.324;2023-09-19T07:42:41;24.00;82.20
27940;DHT22;15275;51.716;14.324;2023-09-19T07:45:08;24.00;82.10
27940;DHT22;15275;51.716;14.324;2023-09-19T07:47:34;24.10;80.60
27940;DHT22;15275;51.716;14.324;2023-09-19T07:50:01;24.10;80.60
27940;DHT22;15275;51.716;14.324;2023-09-19T07:52:28;24.20;79.60
27940;DHT22;15275;51.716;14.324;2023-09-19T07:54:54;24.30;80.90
27940;DHT22;15275;51.716;14.324;2023-09-19T07:57:20;24.30;79.00
27940;DHT22;15275;51.716;14.324;2023-09-19T07:59:46;24.40;78.90
27940;DHT22;15275;51.716;14.324;2023-09-19T08:02:11;24.40;77.40
27940;DHT22;15275;51.716;14.324;2023-09-19T08:04:44;24.40;73.70
27940;DHT22;15275;51.716;14.324;2023-09-19T08:07:12;24.40;76.10
27940;DHT22;15275;51.716;14.324;2023-09-19T08:09:38;24.40;71.20
27940;DHT22;15275;51.716;14.324;2023-09-19T08:12:05;24.40;77.80
27940;DHT22;15275;51.716;14.324;2023-09-19T08:14:33;24.50;77.80
27940;DHT22;15275;51.716;14.324;2023-09-19T08:16:59;24.50;79.40
27940;DHT22;15275;51.716;14.324;2023-09-19T08:19:26;24.60;78.10
27940;DHT22;15275;51.716;14.324;2023-09-19T08:21:56;24.60;78.50
27940;DHT22;15275;51.716;14.324;2023-09-19T08:24:26;24.70;79.40
27940;DHT22;15275;51.716;14.324;2023-09-19T08:26:57;24.80;78.40
27940;DHT22;15275;51.716;14.324;2023-09-19T08:29:23;24.80;78.50
27940;DHT22;15275;51.716;14.324;2023-09-19T08:31:55;24.90;77.90
27940;DHT22;15275;51.716;14.324;2023-09-19T08:34:25;24.90;70.90
27940;DHT22;15275;51.716;14.324;2023-09-19T08:36:51;24.90;67.90
27940;DHT22;15275;51.716;14.324;2023-09-19T08:39:26;24.90;76.20
27940;DHT22;15275;51.716;14.324;2023-09-19T08:41:58;25.00;72.80
27940;DHT22;15275;51.716;14.324;2023-09-19T08:44:24;25.00;75.20
27940;DHT22;15275;51.716;14.324;2023-09-19T08:46:53;25.00;71.10
27940;DHT22;15275;51.716;14.324;2023-09-19T08:52:28;25.10;72.50
27940;DHT22;15275;51.716;14.324;2023-09-19T08:55:01;25.10;69.30
27940;DHT22;15275;51.716;14.324;2023-09-19T08:57:33;25.10;74.80
27940;DHT22;15275;51.716;14.324;2023-09-19T09:00:01;25.20;71.50
27940;DHT22;15275;51.716;14.324;2023-09-19T09:02:31;25.20;69.10
27940;DHT22;15275;51.716;14.324;2023-09-19T09:04:59;25.20;75.00
27940;DHT22;15275;51.716;14.324;2023-09-19T09:07:25;25.30;76.50
27940;DHT22;15275;51.716;14.324;2023-09-19T09:09:52;25.40;77.30
27940;DHT22;15275;51.716;14.324;2023-09-19T09:12:18;25.50;69.90
27940;DHT22;15275;51.716;14.324;2023-09-19T09:14:44;25.50;73.30
27940;DHT22;15275;51.716;14.324;2023-09-19T09:17:11;25.60;75.20
27940;DHT22;15275;51.716;14.324;2023-09-19T09:19:37;25.60;75.20
27940;DHT22;15275;51.716;14.324;2023-09-19T09:22:06;25.60;73.60
27940;DHT22;15275;51.716;14.324;2023-09-19T09:24:33;25.70;75.50
27940;DHT22;15275;51.716;14.324;2023-09-19T09:26:59;25.80;73.70
27940;DHT22;15275;51.716;14.324;2023-09-19T09:34:52;25.80;62.60
27940;DHT22;15275;51.716;14.324;2023-09-19T09:37:22;25.80;66.00
27940;DHT22;15275;51.716;14.324;2023-09-19T09:39:53;25.80;70.90
27940;DHT22;15275;51.716;14.324;2023-09-19T09:42:28;25.80;72.30
27940;DHT22;15275;51.716;14.324;2023-09-19T09:47:43;25.80;66.90
27940;DHT22;15275;51.716;14.324;2023-09-19T09:50:25;25.80;71.20
27940;DHT22;15275;51.716;14.324;2023-09-19T09:52:57;25.90;68.80
27940;DHT22;15275;51.716;14.324;2023-09-19T09:55:56;25.90;65.00
27940;DHT22;15275;51.716;14.324;2023-09-19T09:58:23;25.90;72.30
27940;DHT22;15275;51.716;14.324;2023-09-19T10:00:57;26.00;73.40
27940;DHT22;15275;51.716;14.324;2023-09-19T10:03:40;26.00;69.50
27940;DHT22;15275;51.716;14.324;2023-09-19T10:06:17;26.10;60.00
27940;DHT22;15275;51.716;14.324;2023-09-19T10:14:09;26.20;69.80
27940;DHT22;15275;51.716;14.324;2023-09-19T10:16:45;26.20;69.80
27940;DHT22;15275;51.716;14.324;2023-09-19T10:19:30;26.30;71.90
27940;DHT22;15275;51.716;14.324;2023-09-19T10:22:44;26.40;73.50
27940;DHT22;15275;51.716;14.324;2023-09-19T10:25:23;26.50;70.50
27940;DHT22;15275;51.716;14.324;2023-09-19T10:27:50;26.60;72.40
27940;DHT22;15275;51.716;14.324;2023-09-19T10:30:24;26.70;71.70
27940;DHT22;15275;51.716;14.324;2023-09-19T10:32:55;26.70;70.40
27940;DHT22;15275;51.716;14.324;2023-09-19T10:35:27;26.70;60.60
27940;DHT22;15275;51.716;14.324;2023-09-19T10:37:57;26.70;59.80
27940;DHT22;15275;51.716;14.324;2023-09-19T10:40:26;26.70;66.10
27940;DHT22;15275;51.716;14.324;2023-09-19T10:43:00;26.70;71.00
27940;DHT22;15275;51.716;14.324;2023-09-19T10:45:30;26.70;70.60
27940;DHT22;15275;51.716;14.324;2023-09-19T10:47:57;26.70;62.80
27940;DHT22;15275;51.716;14.324;2023-09-19T10:50:23;26.60;64.60
27940;DHT22;15275;51.716;14.324;2023-09-19T10:52:49;26.60;57.00
27940;DHT22;15275;51.716;14.324;2023-09-19T10:55:17;26.50;59.60
27940;DHT22;15275;51.716;14.324;2023-09-19T10:57:44;26.50;62.20
27940;DHT22;15275;51.716;14.324;2023-09-19T11:00:12;26.40;58.10
27940;DHT22;15275;51.716;14.324;2023-09-19T11:05:39;26.40;69.50
27940;DHT22;15275;51.716;14.324;2023-09-19T11:08:09;26.50;65.40
27940;DHT22;15275;51.716;14.324;2023-09-19T11:10:47;26.50;63.30
27940;DHT22;15275;51.716;14.324;2023-09-19T11:13:23;26.50;69.00
27940;DHT22;15275;51.716;14.324;2023-09-19T11:18:59;26.60;65.40
27940;DHT22;15275;51.716;14.324;2023-09-19T11:26:42;26.60;63.90
27940;DHT22;15275;51.716;14.324;2023-09-19T11:29:25;26.70;55.40
27940;DHT22;15275;51.716;14.324;2023-09-19T11:31:51;26.70;59.30
27940;DHT22;15275;51.716;14.324;2023-09-19T11:37:02;26.60;60.30
27940;DHT22;15275;51.716;14.324;2023-09-19T11:39:30;26.60;65.20
27940;DHT22;15275;51.716;14.324;2023-09-19T11:41:55;26.60;54.00
27940;DHT22;15275;51.716;14.324;2023-09-19T11:49:19;26.30;56.30
27940;DHT22;15275;51.716;14.324;2023-09-19T11:51:51;26.30;66.50
27940;DHT22;15275;51.716;14.324;2023-09-19T11:54:17;26.30;62.30
27940;DHT22;15275;51.716;14.324;2023-09-19T11:56:51;26.30;71.20
27940;DHT22;15275;51.716;14.324;2023-09-19T12:01:52;26.40;63.90
27940;DHT22;15275;51.716;14.324;2023-09-19T12:04:44;26.40;58.00
27940;DHT22;15275;51.716;14.324;2023-09-19T12:07:11;26.40;65.30
27940;DHT22;15275;51.716;14.324;2023-09-19T12:09:47;26.40;56.40
27940;DHT22;15275;51.716;14.324;2023-09-19T12:14:56;26.30;61.90
27940;DHT22;15275;51.716;14.324;2023-09-19T12:17:24;26.30;62.30
27940;DHT22;15275;51.716;14.324;2023-09-19T12:20:01;26.30;62.40
27940;DHT22;15275;51.716;14.324;2023-09-19T12:22:41;26.40;63.80
27940;DHT22;15275;51.716;14.324;2023-09-19T12:25:09;26.40;69.60
27940;DHT22;15275;51.716;14.324;2023-09-19T12:30:18;26.50;56.40
27940;DHT22;15275;51.716;14.324;2023-09-19T12:32:46;26.60;65.50
27940;DHT22;15275;51.716;14.324;2023-09-19T12:35:31;26.60;61.60
27940;DHT22;15275;51.716;14.324;2023-09-19T12:38:01;26.60;63.00
27940;DHT22;15275;51.716;14.324;2023-09-19T12:40:28;26.60;56.00
27940;DHT22;15275;51.716;14.324;2023-09-19T12:42:58;26.50;61.10
27940;DHT22;15275;51.716;14.324;2023-09-19T12:45:24;26.50;63.50
27940;DHT22;15275;51.716;14.324;2023-09-19T12:51:04;26.60;57.00
27940;DHT22;15275;51.716;14.324;2023-09-19T12:53:38;26.60;61.60
27940;DHT22;15275;51.716;14.324;2023-09-19T12:56:15;26.60;63.80
27940;DHT22;15275;51.716;14.324;2023-09-19T12:58:56;26.60;62.30
27940;DHT22;15275;51.716;14.324;2023-09-19T13:01:24;26.70;62.40
27940;DHT22;15275;51.716;14.324;2023-09-19T13:06:48;26.80;56.90
27940;DHT22;15275;51.716;14.324;2023-09-19T13:09:15;26.80;60.80
27940;DHT22;15275;51.716;14.324;2023-09-19T13:11:41;26.90;69.80
27940;DHT22;15275;51.716;14.324;2023-09-19T13:14:16;26.90;69.70
27940;DHT22;15275;51.716;14.324;2023-09-19T13:17:19;27.00;71.80
27940;DHT22;15275;51.716;14.324;2023-09-19T13:19:49;27.10;63.30
27940;DHT22;15275;51.716;14.324;2023-09-19T13:25:23;27.20;70.00
27940;DHT22;15275;51.716;14.324;2023-09-19T13:27:51;27.30;69.90
27940;DHT22;15275;51.716;14.324;2023-09-19T13:30:20;27.30;71.80
27940;DHT22;15275;51.716;14.324;2023-09-19T13:32:47;27.40;64.90
27940;DHT22;15275;51.716;14.324;2023-09-19T13:35:13;27.40;71.80
27940;DHT22;15275;51.716;14.324;2023-09-19T13:37:40;27.50;62.70
27940;DHT22;15275;51.716;14.324;2023-09-19T13:40:10;27.50;69.90
27940;DHT22;15275;51.716;14.324;2023-09-19T13:42:36;27.60;68.40
27940;DHT22;15275;51.716;14.324;2023-09-19T13:45:03;27.60;69.50
27940;DHT22;15275;51.716;14.324;2023-09-19T13:47:30;27.60;72.20
27940;DHT22;15275;51.716;14.324;2023-09-19T13:49:59;27.60;71.30
27940;DHT22;15275;51.716;14.324;2023-09-19T13:52:26;27.70;72.40
27940;DHT22;15275;51.716;14.324;2023-09-19T13:54:53;27.70;68.30
27940;DHT22;15275;51.716;14.324;2023-09-19T13:57:22;27.70;70.20
27940;DHT22;15275;51.716;14.324;2023-09-19T13:59:54;27.70;68.00
27940;DHT22;15275;51.716;14.324;2023-09-19T14:02:20;27.70;52.50
27940;DHT22;15275;51.716;14.324;2023-09-19T14:04:48;27.70;65.20
27940;DHT22;15275;51.716;14.324;2023-09-19T14:07:15;27.60;59.60
27940;DHT22;15275;51.716;14.324;2023-09-19T14:09:44;27.60;65.30
27940;DHT22;15275;51.716;14.324;2023-09-19T14:12:10;27.60;57.50
27940;DHT22;15275;51.716;14.324;2023-09-19T14:14:36;27.50;62.20
27940;DHT22;15275;51.716;14.324;2023-09-19T14:17:03;27.50;65.40
27940;DHT22;15275;51.716;14.324;2023-09-19T14:19:32;27.50;58.20
27940;DHT22;15275;51.716;14.324;2023-09-19T14:21:58;27.40;62.00
27940;DHT22;15275;51.716;14.324;2023-09-19T14:24:25;27.40;50.60
27940;DHT22;15275;51.716;14.324;2023-09-19T14:26:51;27.30;54.20
27940;DHT22;15275;51.716;14.324;2023-09-19T14:29:17;27.20;58.00
27940;DHT22;15275;51.716;14.324;2023-09-19T14:31:43;27.20;64.20
27940;DHT22;15275;51.716;14.324;2023-09-19T14:34:09;27.10;65.10
27940;DHT22;15275;51.716;14.324;2023-09-19T14:36:38;27.10;63.30
27940;DHT22;15275;51.716;14.324;2023-09-19T14:39:04;27.10;65.40
27940;DHT22;15275;51.716;14.324;2023-09-19T14:41:30;27.10;57.00
27940;DHT22;15275;51.716;14.324;2023-09-19T14:43:56;27.10;57.20
27940;DHT22;15275;51.716;14.324;2023-09-19T14:46:22;27.00;56.50
27940;DHT22;15275;51.716;14.324;2023-09-19T14:48:52;27.00;60.80
27940;DHT22;15275;51.716;14.324;2023-09-19T14:51:18;27.00;61.40
27940;DHT22;15275;51.716;14.324;2023-09-19T14:53:44;27.00;63.30
27940;DHT22;15275;51.716;14.324;2023-09-19T14:56:11;27.00;63.90
27940;DHT22;15275;51.716;14.324;2023-09-19T14:58:38;27.00;55.60
27940;DHT22;15275;51.716;14.324;2023-09-19T15:01:05;26.90;56.00
27940;DHT22;15275;51.716;14.324;2023-09-19T15:03:31;26.90;65.30
27940;DHT22;15275;51.716;14.324;2023-09-19T15:06:04;26.90;67.90
27940;DHT22;15275;51.716;14.324;2023-09-19T15:08:31;26.90;63.60
27940;DHT22;15275;51.716;14.324;2023-09-19T15:11:03;26.90;70.60
27940;DHT22;15275;51.716;14.324;2023-09-19T15:13:31;27.00;66.90
27940;DHT22;15275;51.716;14.324;2023-09-19T15:16:06;27.00;66.00
27940;DHT22;15275;51.716;14.324;2023-09-19T15:18:36;27.00;66.50
27940;DHT22;15275;51.716;14.324;2023-09-19T15:21:06;27.00;57.30
27940;DHT22;15275;51.716;14.324;2023-09-19T15:23:32;26.90;67.40
27940;DHT22;15275;51.716;14.324;2023-09-19T15:26:02;27.00;70.00
27940;DHT22;15275;51.716;14.324;2023-09-19T15:28:29;27.00;71.90
27940;DHT22;15275;51.716;14.324;2023-09-19T15:31:00;27.00;71.10
27940;DHT22;15275;51.716;14.324;2023-09-19T15:33:26;27.00;69.30
27940;DHT22;15275;51.716;14.324;2023-09-19T15:36:00;27.00;69.60
27940;DHT22;15275;51.716;14.324;2023-09-19T15:38:55;26.90;70.60
27940;DHT22;15275;51.716;14.324;2023-09-19T15:41:25;26.90;63.00
27940;DHT22;15275;51.716;14.324;2023-09-19T15:43:52;26.90;59.00
27940;DHT22;15275;51.716;14.324;2023-09-19T15:46:19;26.80;63.80
27940;DHT22;15275;51.716;14.324;2023-09-19T15:48:45;26.80;67.50
27940;DHT22;15275;51.716;14.324;2023-09-19T15:51:11;26.70;62.30
27940;DHT22;15275;51.716;14.324;2023-09-19T15:53:44;26.70;64.70
27940;DHT22;15275;51.716;14.324;2023-09-19T15:56:11;26.70;61.40
27940;DHT22;15275;51.716;14.324;2023-09-19T15:58:37;26.70;68.70
27940;DHT22;15275;51.716;14.324;2023-09-19T16:01:08;26.70;65.80
27940;DHT22;15275;51.716;14.324;2023-09-19T16:03:40;26.70;70.60
27940;DHT22;15275;51.716;14.324;2023-09-19T16:06:09;26.80;70.40
27940;DHT22;15275;51.716;14.324;2023-09-19T16:08:42;26.80;70.70
27940;DHT22;15275;51.716;14.324;2023-09-19T16:11:09;26.80;71.40
27940;DHT22;15275;51.716;14.324;2023-09-19T16:13:36;26.80;70.50
27940;DHT22;15275;51.716;14.324;2023-09-19T16:16:02;26.80;66.10
27940;DHT22;15275;51.716;14.324;2023-09-19T16:18:29;26.80;68.90
27940;DHT22;15275;51.716;14.324;2023-09-19T16:21:00;26.70;72.00
27940;DHT22;15275;51.716;14.324;2023-09-19T16:23:29;26.70;71.60
27940;DHT22;15275;51.716;14.324;2023-09-19T16:26:01;26.70;73.00
27940;DHT22;15275;51.716;14.324;2023-09-19T16:28:31;26.60;73.60
27940;DHT22;15275;51.716;14.324;2023-09-19T16:31:00;26.60;71.60
27940;DHT22;15275;51.716;14.324;2023-09-19T16:33:27;26.50;73.20